Time;durP1;ratioP1;P1;durP2;ratioP2;P2;SDS_P1;SDS_P2;PMS_P1;PMS_P2;Temp;Humidity;BMP_temperature;BMP_pressure;BME280_temperature;BME280_humidity;BME280_pressure;Samples;Min_cycle;Max_cycle;Signal;HPM_P1;HPM_P2
2023/05/18 00:01:56;;;;;;;5.87;2.00;;;;;;;;;;5030166;28;20647;-61
2023/05/18 00:04:22;;;;;;;6.30;1.40;;;;;;;;;;5030453;28;20196;-61
2023/05/18 00:06:55;;;;;;;6.07;1.50;;;;;;;;;;5028883;28;20269;-61
2023/05/18 00:09:25;;;;;;;9.37;1.67;;;;;;;;;;5029795;28;20219;-61
2023/05/18 00:11:52;;;;;;;7.50;2.60;;;;;;;;;;5030244;28;20563;-61
2023/05/18 00:14:18;;;;;;;4.43;1.80;;;;;;;;;;5030043;28;20244;-61
2023/05/18 00:16:46;;;;;;;5.77;1.50;;;;;;;;;;5029872;28;20607;-61
2023/05/18 00:19:13;;;;;;;5.30;1.33;;;;;;;;;;5030401;28;20238;-61
2023/05/18 00:21:41;;;;;;;7.03;1.37;;;;;;;;;;5030057;28;20302;-61
2023/05/18 00:24:09;;;;;;;3.93;1.50;;;;;;;;;;5029323;28;20638;-63
2023/05/18 00:26:37;;;;;;;5.67;1.60;;;;;;;;;;5028436;28;20705;-61
2023/05/18 00:29:04;;;;;;;5.73;1.50;;;;;;;;;;5029502;28;20224;-61
2023/05/18 00:31:38;;;;;;;7.37;1.20;;;;;;;;;;5028721;28;20199;-61
2023/05/18 00:34:06;;;;;;;6.97;1.40;;;;;;;;;;5029858;28;20257;-61
2023/05/18 00:36:32;;;;;;;6.07;1.70;;;;;;;;;;5029895;28;20558;-61
2023/05/18 00:38:59;;;;;;;3.20;1.30;;;;;;;;;;5029622;28;20203;-61
2023/05/18 00:41:26;;;;;;;3.90;1.30;;;;;;;;;;5029562;28;20298;-61
2023/05/18 00:43:53;;;;;;;2.83;1.00;;;;;;;;;;5013324;28;20199;-61
2023/05/18 00:46:20;;;;;;;6.33;1.60;;;;;;;;;;5010240;28;20192;-61
2023/05/18 00:48:47;;;;;;;2.50;0.97;;;;;;;;;;5008463;28;20961;-61
2023/05/18 00:51:14;;;;;;;6.63;1.67;;;;;;;;;;5009913;28;20199;-62
2023/05/18 00:53:41;;;;;;;3.03;1.20;;;;;;;;;;5008402;28;20196;-61
2023/05/18 00:56:10;;;;;;;4.10;1.00;;;;;;;;;;5009695;28;20544;-61
2023/05/18 00:58:40;;;;;;;3.60;0.90;;;;;;;;;;5008390;28;20200;-62
2023/05/18 01:01:08;;;;;;;6.90;1.53;;;;;;;;;;5008463;28;20200;-61
2023/05/18 01:03:37;;;;;;;7.63;1.50;;;;;;;;;;5009643;28;20187;-61
2023/05/18 01:06:06;;;;;;;7.90;1.40;;;;;;;;;;5009367;28;20466;-61
2023/05/18 01:08:33;;;;;;;5.83;1.10;;;;;;;;;;5008392;28;20247;-61
2023/05/18 01:11:20;;;;;;;3.13;1.10;;;;;;;;;;4992167;28;20212;-61
2023/05/18 01:14:14;;;;;;;2.10;1.00;;;;;;;;;;4991976;28;20196;-61
2023/05/18 01:16:43;;;;;;;3.83;1.00;;;;;;;;;;5002634;28;20208;-61
2023/05/18 01:19:15;;;;;;;2.93;1.13;;;;;;;;;;5008622;28;20215;-61
2023/05/18 01:22:02;;;;;;;5.43;1.30;;;;;;;;;;5008410;28;20208;-61
2023/05/18 01:24:33;;;;;;;4.10;1.13;;;;;;;;;;5007833;28;20958;-59
2023/05/18 01:26:59;;;;;;;2.43;1.10;;;;;;;;;;5008403;28;20441;-61
2023/05/18 01:29:26;;;;;;;2.93;1.33;;;;;;;;;;5007821;28;21331;-58
2023/05/18 01:31:53;;;;;;;4.43;1.30;;;;;;;;;;5008121;28;20445;-59
2023/05/18 01:34:20;;;;;;;4.67;1.20;;;;;;;;;;4992136;28;20202;-59
2023/05/18 01:36:46;;;;;;;3.77;1.10;;;;;;;;;;5009255;28;20295;-61
2023/05/18 01:39:14;;;;;;;2.60;1.10;;;;;;;;;;5007818;28;20447;-61
2023/05/18 01:41:45;;;;;;;3.83;1.20;;;;;;;;;;5009535;28;20188;-60
2023/05/18 02:16:21;;;;;;;5.03;1.00;;;;;;;;;;4737229;28;22598;-61
2023/05/18 02:18:51;;;;;;;4.27;1.50;;;;;;;;;;5030860;28;20464;-60
2023/05/18 02:21:19;;;;;;;6.53;1.50;;;;;;;;;;5025298;28;20807;-61
2023/05/18 02:23:45;;;;;;;2.80;1.30;;;;;;;;;;5012198;28;20442;-60
2023/05/18 02:26:12;;;;;;;4.20;1.20;;;;;;;;;;5010937;28;20433;-61
2023/05/18 02:28:39;;;;;;;3.30;1.20;;;;;;;;;;5011391;28;20526;-60
2023/05/18 02:31:06;;;;;;;2.70;0.93;;;;;;;;;;5012500;28;20447;-61
2023/05/18 02:33:40;;;;;;;3.73;0.90;;;;;;;;;;5011025;28;20469;-60
2023/05/18 02:36:07;;;;;;;3.60;1.10;;;;;;;;;;5010493;28;20446;-61
2023/05/18 02:38:35;;;;;;;3.17;1.10;;;;;;;;;;5029870;28;20861;-60
2023/05/18 02:41:01;;;;;;;2.73;1.23;;;;;;;;;;5030513;28;20450;-61
2023/05/18 02:43:28;;;;;;;3.20;1.10;;;;;;;;;;5032258;28;20789;-61
2023/05/18 02:45:56;;;;;;;2.93;1.17;;;;;;;;;;5031712;28;20437;-60
2023/05/18 02:48:22;;;;;;;4.17;1.63;;;;;;;;;;5028721;28;20812;-61
2023/05/18 02:50:50;;;;;;;5.27;1.50;;;;;;;;;;5030230;28;20508;-61
2023/05/18 02:53:17;;;;;;;4.40;1.50;;;;;;;;;;5029273;28;20438;-61
2023/05/18 02:55:45;;;;;;;3.70;1.50;;;;;;;;;;5041889;28;20441;-60
2023/05/18 02:58:16;;;;;;;4.53;1.23;;;;;;;;;;5051672;28;20440;-60
2023/05/18 03:00:58;;;;;;;3.87;1.40;;;;;;;;;;5050276;28;20483;-60
2023/05/18 03:03:31;;;;;;;4.53;1.37;;;;;;;;;;5050002;28;21023;-60
2023/05/18 03:05:59;;;;;;;3.90;1.63;;;;;;;;;;5033822;28;20542;-61
2023/05/18 03:08:27;;;;;;;6.63;1.70;;;;;;;;;;5010102;28;20439;-60
2023/05/18 03:10:54;;;;;;;4.33;1.33;;;;;;;;;;5012798;28;20568;-60
2023/05/18 03:13:22;;;;;;;5.07;1.77;;;;;;;;;;5030467;28;20439;-60
2023/05/18 03:15:50;;;;;;;4.93;1.30;;;;;;;;;;5029861;28;21113;-60
2023/05/18 03:18:18;;;;;;;5.27;1.63;;;;;;;;;;5029745;28;21113;-60
2023/05/18 03:20:44;;;;;;;5.50;1.93;;;;;;;;;;5029327;28;20964;-60
2023/05/18 03:23:11;;;;;;;2.97;1.20;;;;;;;;;;5010652;28;20495;-60
2023/05/18 03:25:38;;;;;;;2.23;1.13;;;;;;;;;;5010262;28;20451;-60
2023/05/18 03:28:05;;;;;;;3.20;1.10;;;;;;;;;;5029202;28;20454;-61
2023/05/18 03:30:32;;;;;;;3.07;1.30;;;;;;;;;;5029613;28;20598;-60
2023/05/18 03:33:03;;;;;;;2.33;1.73;;;;;;;;;;5029589;28;20442;-60
2023/05/18 03:35:30;;;;;;;6.10;1.73;;;;;;;;;;5029552;28;20482;-60
2023/05/18 03:37:57;;;;;;;7.17;1.90;;;;;;;;;;5029489;28;20440;-62
2023/05/18 03:40:24;;;;;;;4.70;2.23;;;;;;;;;;5028778;28;20473;-60
2023/05/18 03:42:51;;;;;;;4.33;1.40;;;;;;;;;;5030212;28;20436;-60
2023/05/18 03:45:17;;;;;;;4.97;1.43;;;;;;;;;;5049377;28;20483;-61
2023/05/18 03:47:44;;;;;;;3.87;1.53;;;;;;;;;;5048941;28;20468;-60
2023/05/18 03:50:12;;;;;;;4.67;1.57;;;;;;;;;;5050335;28;20477;-60
2023/05/18 03:52:40;;;;;;;2.60;1.17;;;;;;;;;;5049342;28;20483;-60
2023/05/18 03:55:07;;;;;;;2.97;1.33;;;;;;;;;;5050371;28;20459;-61
2023/05/18 03:57:34;;;;;;;5.33;1.37;;;;;;;;;;5022232;28;20958;-60
2023/05/18 04:00:03;;;;;;;3.97;1.00;;;;;;;;;;5009375;28;20450;-60
2023/05/18 04:02:31;;;;;;;3.77;1.50;;;;;;;;;;5009127;28;20446;-60
2023/05/18 04:04:58;;;;;;;4.83;1.60;;;;;;;;;;5009139;28;21018;-60
2023/05/18 04:07:26;;;;;;;4.07;1.60;;;;;;;;;;5018563;28;20446;-61
2023/05/18 04:09:53;;;;;;;2.87;1.40;;;;;;;;;;5015853;28;20536;-60
2023/05/18 04:12:20;;;;;;;4.67;1.57;;;;;;;;;;5023404;28;20980;-62
2023/05/18 04:14:48;;;;;;;4.80;2.00;;;;;;;;;;5016577;28;20477;-60
2023/05/18 04:17:20;;;;;;;6.87;2.47;;;;;;;;;;5026990;28;20218;-60
2023/05/18 04:19:48;;;;;;;4.67;1.80;;;;;;;;;;5023115;28;20751;-59
2023/05/18 04:22:15;;;;;;;6.87;2.10;;;;;;;;;;5026820;28;20183;-60
2023/05/18 04:24:41;;;;;;;7.00;1.80;;;;;;;;;;5028407;28;20192;-60
2023/05/18 04:27:10;;;;;;;8.97;2.17;;;;;;;;;;5013549;28;20192;-60
2023/05/18 04:29:42;;;;;;;7.60;2.60;;;;;;;;;;5009123;28;20694;-60
2023/05/18 04:32:09;;;;;;;7.03;2.40;;;;;;;;;;5016676;28;20184;-60
2023/05/18 04:34:36;;;;;;;11.10;2.37;;;;;;;;;;5010499;28;20192;-60
2023/05/18 04:37:06;;;;;;;5.23;2.10;;;;;;;;;;5008149;28;20323;-59
2023/05/18 04:39:38;;;;;;;7.33;1.90;;;;;;;;;;5012451;28;20184;-60
2023/05/18 04:42:09;;;;;;;4.93;1.90;;;;;;;;;;5021056;28;20226;-60
2023/05/18 04:44:37;;;;;;;6.67;1.77;;;;;;;;;;5028357;28;20294;-60
2023/05/18 04:47:07;;;;;;;6.03;1.40;;;;;;;;;;5008856;28;20206;-60
2023/05/18 04:49:37;;;;;;;5.63;1.60;;;;;;;;;;5006955;28;20224;-62
2023/05/18 04:52:06;;;;;;;4.67;1.73;;;;;;;;;;5025623;28;20595;-60
2023/05/18 04:54:33;;;;;;;5.20;1.70;;;;;;;;;;5014682;28;20576;-60
2023/05/18 04:57:02;;;;;;;6.27;1.80;;;;;;;;;;5028497;28;20191;-60
2023/05/18 04:59:29;;;;;;;4.30;1.60;;;;;;;;;;5017563;28;20691;-60
2023/05/18 05:01:55;;;;;;;3.80;1.50;;;;;;;;;;5028177;28;20187;-60
2023/05/18 05:04:24;;;;;;;5.77;1.40;;;;;;;;;;5028514;28;20740;-60
2023/05/18 05:06:51;;;;;;;4.67;1.47;;;;;;;;;;5026584;28;20908;-61
2023/05/18 05:09:17;;;;;;;5.33;1.43;;;;;;;;;;5030243;28;20293;-61
2023/05/18 05:11:44;;;;;;;5.30;1.63;;;;;;;;;;5019964;28;20196;-60
2023/05/18 05:14:11;;;;;;;2.93;1.17;;;;;;;;;;5010114;28;20668;-61
2023/05/18 05:16:38;;;;;;;5.07;1.10;;;;;;;;;;5012221;28;20227;-61
2023/05/18 05:19:05;;;;;;;4.57;1.23;;;;;;;;;;5010034;28;20191;-61
2023/05/18 05:21:32;;;;;;;3.50;0.97;;;;;;;;;;5009700;28;20200;-59
2023/05/18 05:24:03;;;;;;;4.47;1.50;;;;;;;;;;5009386;28;20666;-59
2023/05/18 05:26:32;;;;;;;3.23;0.90;;;;;;;;;;5020103;28;20192;-60
2023/05/18 05:28:59;;;;;;;2.77;1.00;;;;;;;;;;5012343;28;20223;-60
2023/05/18 05:31:26;;;;;;;2.97;1.23;;;;;;;;;;5029861;28;20227;-60
2023/05/18 05:33:53;;;;;;;2.50;0.77;;;;;;;;;;5030615;28;20210;-60
2023/05/18 05:36:19;;;;;;;3.33;0.97;;;;;;;;;;5007896;28;20192;-60
2023/05/18 05:38:46;;;;;;;1.70;0.73;;;;;;;;;;5009180;28;20180;-61
2023/05/18 05:41:13;;;;;;;3.63;1.10;;;;;;;;;;5010689;28;20215;-60
2023/05/18 05:43:40;;;;;;;6.43;0.93;;;;;;;;;;5014900;28;20192;-60
2023/05/18 05:46:07;;;;;;;2.57;0.70;;;;;;;;;;5015986;28;20216;-60
2023/05/18 05:48:33;;;;;;;4.60;0.97;;;;;;;;;;5010326;28;20205;-61
2023/05/18 05:51:01;;;;;;;3.17;0.90;;;;;;;;;;5013596;28;20254;-61
2023/05/18 05:53:29;;;;;;;7.40;0.90;;;;;;;;;;5019193;28;20283;-60
2023/05/18 05:55:56;;;;;;;2.60;1.00;;;;;;;;;;5013128;28;20616;-60
2023/05/18 05:58:23;;;;;;;1.77;0.80;;;;;;;;;;5013736;28;20196;-60
2023/05/18 06:00:54;;;;;;;1.60;0.80;;;;;;;;;;5022441;28;20202;-60
2023/05/18 06:03:21;;;;;;;3.70;0.80;;;;;;;;;;5026315;28;20226;-60
2023/05/18 06:05:48;;;;;;;3.93;1.00;;;;;;;;;;5013501;28;20192;-60
2023/05/18 06:08:17;;;;;;;5.23;0.93;;;;;;;;;;5015483;28;20215;-60
2023/05/18 06:10:45;;;;;;;4.13;1.13;;;;;;;;;;5012709;28;20247;-60
2023/05/18 06:13:12;;;;;;;3.83;0.87;;;;;;;;;;5012961;28;20230;-60
2023/05/18 06:15:48;;;;;;;4.70;1.33;;;;;;;;;;5035864;28;20283;-60
2023/05/18 06:18:16;;;;;;;2.97;0.70;;;;;;;;;;5025039;28;20227;-60
2023/05/18 06:20:44;;;;;;;1.73;0.60;;;;;;;;;;5013550;28;20630;-61
2023/05/18 06:23:13;;;;;;;4.20;0.50;;;;;;;;;;5010203;28;20859;-60
2023/05/18 06:26:00;;;;;;;4.10;0.83;;;;;;;;;;5001399;28;20204;-60
2023/05/18 06:28:46;;;;;;;2.83;1.17;;;;;;;;;;5021596;28;20920;-61
2023/05/18 06:31:23;;;;;;;3.43;0.63;;;;;;;;;;5017406;28;20345;-61
2023/05/18 06:34:12;;;;;;;2.47;0.70;;;;;;;;;;5017722;28;20199;-60
2023/05/18 06:36:39;;;;;;;6.03;0.73;;;;;;;;;;5030762;28;20203;-60
2023/05/18 06:39:06;;;;;;;2.30;0.63;;;;;;;;;;5031577;28;20519;-60
2023/05/18 06:41:33;;;;;;;2.20;0.70;;;;;;;;;;5030724;28;20226;-60
2023/05/18 06:44:00;;;;;;;2.97;0.70;;;;;;;;;;5030611;28;20191;-61
2023/05/18 06:46:34;;;;;;;2.13;0.60;;;;;;;;;;5032277;28;20202;-60
2023/05/18 06:49:08;;;;;;;2.20;0.60;;;;;;;;;;5030649;28;20191;-60
2023/05/18 06:51:34;;;;;;;2.33;0.43;;;;;;;;;;5031569;28;20702;-60
2023/05/18 06:54:03;;;;;;;2.17;0.40;;;;;;;;;;5030109;28;20192;-60
2023/05/18 06:56:29;;;;;;;1.53;0.60;;;;;;;;;;5030407;28;20246;-61
2023/05/18 06:58:56;;;;;;;2.07;0.50;;;;;;;;;;5029877;28;20257;-60
2023/05/18 07:01:27;;;;;;;1.90;0.50;;;;;;;;;;5030154;28;20230;-61
2023/05/18 07:03:58;;;;;;;1.13;0.40;;;;;;;;;;5030245;28;20226;-60
2023/05/18 07:06:24;;;;;;;3.13;0.60;;;;;;;;;;5031713;28;20631;-61
2023/05/18 07:08:51;;;;;;;5.33;0.80;;;;;;;;;;5031063;28;20275;-61
2023/05/18 07:11:18;;;;;;;3.70;0.53;;;;;;;;;;5031416;28;20311;-60
2023/05/18 07:13:44;;;;;;;1.50;0.77;;;;;;;;;;5031107;28;20183;-61
2023/05/18 07:16:11;;;;;;;1.60;0.63;;;;;;;;;;5030991;28;20191;-61
2023/05/18 07:18:38;;;;;;;1.80;0.60;;;;;;;;;;5031080;28;20192;-61
2023/05/18 07:21:05;;;;;;;0.97;0.40;;;;;;;;;;5031236;28;20187;-60
2023/05/18 07:23:32;;;;;;;0.77;0.47;;;;;;;;;;5031014;28;20191;-60
2023/05/18 07:25:58;;;;;;;2.33;0.50;;;;;;;;;;5031182;28;20192;-60
2023/05/18 07:28:25;;;;;;;0.90;0.47;;;;;;;;;;5031380;28;20218;-61
2023/05/18 07:30:52;;;;;;;0.90;0.40;;;;;;;;;;5030883;28;20235;-60
2023/05/18 07:33:18;;;;;;;1.63;0.40;;;;;;;;;;5031234;28;20202;-60
2023/05/18 07:35:45;;;;;;;1.90;0.50;;;;;;;;;;5030976;28;20191;-60
2023/05/18 07:38:12;;;;;;;0.83;0.53;;;;;;;;;;5030733;28;20190;-60
2023/05/18 07:40:38;;;;;;;1.30;0.50;;;;;;;;;;5031123;28;20202;-60
2023/05/18 07:43:05;;;;;;;2.73;0.60;;;;;;;;;;5029185;28;20192;-60
2023/05/18 07:45:35;;;;;;;1.53;0.73;;;;;;;;;;5030979;28;20198;-60
2023/05/18 07:48:02;;;;;;;2.97;0.70;;;;;;;;;;5030780;28;20226;-60
2023/05/18 07:50:33;;;;;;;1.20;0.50;;;;;;;;;;5030557;28;20196;-60
2023/05/18 07:53:00;;;;;;;1.03;0.50;;;;;;;;;;5030568;28;20199;-59
2023/05/18 07:55:26;;;;;;;0.73;0.40;;;;;;;;;;5030980;28;20195;-59
2023/05/18 07:57:53;;;;;;;2.27;0.83;;;;;;;;;;5030420;28;20742;-60
2023/05/18 08:00:20;;;;;;;2.47;0.70;;;;;;;;;;5030181;28;20195;-59
2023/05/18 08:02:46;;;;;;;2.57;0.50;;;;;;;;;;5030237;28;20195;-60
2023/05/18 08:05:13;;;;;;;1.57;0.57;;;;;;;;;;5030507;28;20215;-60
2023/05/18 08:07:41;;;;;;;4.97;0.93;;;;;;;;;;5029127;28;20230;-60
2023/05/18 08:10:08;;;;;;;2.30;0.60;;;;;;;;;;5030052;28;20247;-61
2023/05/18 08:12:35;;;;;;;2.73;0.83;;;;;;;;;;5029566;28;20242;-61
2023/05/18 08:15:01;;;;;;;1.80;0.70;;;;;;;;;;5030118;28;20223;-60
2023/05/18 08:17:28;;;;;;;2.33;0.70;;;;;;;;;;5028788;28;20230;-61
2023/05/18 08:19:55;;;;;;;0.93;0.50;;;;;;;;;;5029843;28;20195;-61
2023/05/18 08:22:22;;;;;;;1.77;0.70;;;;;;;;;;5028365;28;20245;-60
2023/05/18 08:24:49;;;;;;;1.90;0.70;;;;;;;;;;5029399;28;20540;-60
2023/05/18 08:27:16;;;;;;;2.73;0.60;;;;;;;;;;5029939;28;20608;-60
2023/05/18 08:29:43;;;;;;;2.20;0.60;;;;;;;;;;5029672;28;20183;-60
2023/05/18 08:32:10;;;;;;;2.30;0.80;;;;;;;;;;5029756;28;20578;-60
2023/05/18 08:34:37;;;;;;;2.57;0.80;;;;;;;;;;5029916;28;20662;-60
2023/05/18 08:37:04;;;;;;;1.47;0.50;;;;;;;;;;5029817;28;20267;-60
2023/05/18 08:39:31;;;;;;;2.37;0.70;;;;;;;;;;5029220;28;20202;-61
2023/05/18 08:42:01;;;;;;;1.27;0.57;;;;;;;;;;5029774;28;20194;-60
2023/05/18 08:44:34;;;;;;;2.70;0.90;;;;;;;;;;5029427;28;20294;-60
2023/05/18 08:47:01;;;;;;;4.10;0.90;;;;;;;;;;5029621;28;20245;-60
2023/05/18 08:49:28;;;;;;;1.73;0.60;;;;;;;;;;5029889;28;20274;-60
2023/05/18 08:51:55;;;;;;;3.47;0.87;;;;;;;;;;5028378;28;20223;-60
2023/05/18 08:54:22;;;;;;;2.90;0.90;;;;;;;;;;5029266;28;20187;-60
2023/05/18 08:56:50;;;;;;;2.70;0.50;;;;;;;;;;5029361;28;20226;-60
2023/05/18 08:59:23;;;;;;;1.23;0.40;;;;;;;;;;5029581;28;20594;-60
2023/05/18 09:01:53;;;;;;;1.20;0.33;;;;;;;;;;5029421;28;20550;-60
2023/05/18 09:04:20;;;;;;;2.20;0.50;;;;;;;;;;5029468;28;20187;-61
2023/05/18 09:06:47;;;;;;;2.43;0.40;;;;;;;;;;5029299;28;20187;-60
2023/05/18 09:09:14;;;;;;;1.73;0.40;;;;;;;;;;5029352;28;20202;-60
2023/05/18 09:11:40;;;;;;;1.30;0.63;;;;;;;;;;5029346;28;20219;-60
2023/05/18 09:14:07;;;;;;;1.30;0.40;;;;;;;;;;5029214;28;20211;-60
2023/05/18 09:16:34;;;;;;;0.93;0.50;;;;;;;;;;5029154;28;20227;-61
2023/05/18 09:19:01;;;;;;;1.27;0.50;;;;;;;;;;5029099;28;20175;-61
2023/05/18 09:21:30;;;;;;;0.73;0.40;;;;;;;;;;5029050;28;20214;-61
2023/05/18 09:23:58;;;;;;;1.77;0.53;;;;;;;;;;5032937;28;20554;-60
2023/05/18 09:26:25;;;;;;;2.53;0.67;;;;;;;;;;5015793;28;20654;-60
2023/05/18 09:28:52;;;;;;;1.93;0.33;;;;;;;;;;5033376;28;20197;-59
2023/05/18 09:31:19;;;;;;;2.53;1.10;;;;;;;;;;5033358;28;20219;-59
2023/05/18 09:33:46;;;;;;;2.47;0.60;;;;;;;;;;5033367;28;20199;-60
2023/05/18 09:36:16;;;;;;;3.77;0.90;;;;;;;;;;5033242;28;20196;-60
2023/05/18 09:38:46;;;;;;;1.80;0.50;;;;;;;;;;5031635;28;20218;-59
2023/05/18 09:41:16;;;;;;;2.70;0.80;;;;;;;;;;5033218;28;20279;-60
2023/05/18 09:43:44;;;;;;;1.63;0.50;;;;;;;;;;5033124;28;20693;-60
2023/05/18 09:46:11;;;;;;;1.33;0.60;;;;;;;;;;5031958;28;20191;-61
2023/05/18 09:48:48;;;;;;;1.33;0.60;;;;;;;;;;5033148;28;20202;-61
2023/05/18 09:51:16;;;;;;;1.20;0.40;;;;;;;;;;5033105;28;20662;-61
2023/05/18 09:53:47;;;;;;;1.87;0.77;;;;;;;;;;5032407;28;20191;-60
2023/05/18 09:56:14;;;;;;;3.47;1.57;;;;;;;;;;5031701;28;20663;-60
2023/05/18 09:58:41;;;;;;;3.33;0.77;;;;;;;;;;5031586;28;20183;-60
2023/05/18 10:01:07;;;;;;;5.43;1.73;;;;;;;;;;5032934;28;20275;-60
2023/05/18 10:03:38;;;;;;;2.57;0.60;;;;;;;;;;5032726;28;20188;-60
2023/05/18 10:06:05;;;;;;;3.33;0.50;;;;;;;;;;5032609;28;20194;-60
2023/05/18 10:08:32;;;;;;;2.83;0.70;;;;;;;;;;5032519;28;20195;-60
2023/05/18 10:10:59;;;;;;;2.87;0.80;;;;;;;;;;5032405;28;20270;-61
2023/05/18 10:13:27;;;;;;;0.70;0.40;;;;;;;;;;5031775;28;20278;-61
2023/05/18 10:15:54;;;;;;;1.80;0.70;;;;;;;;;;5032268;28;20192;-61
2023/05/18 10:18:21;;;;;;;1.43;0.50;;;;;;;;;;5032169;28;20727;-61
2023/05/18 10:20:49;;;;;;;2.83;0.40;;;;;;;;;;5032274;28;20202;-60
2023/05/18 10:23:19;;;;;;;1.93;0.43;;;;;;;;;;5032366;28;20245;-60
2023/05/18 10:25:46;;;;;;;2.23;0.30;;;;;;;;;;5032129;28;20333;-60
2023/05/18 10:28:13;;;;;;;3.93;1.23;;;;;;;;;;5032626;28;20689;-61
2023/05/18 10:30:40;;;;;;;2.73;0.60;;;;;;;;;;5030685;28;20242;-60
2023/05/18 10:33:07;;;;;;;2.47;1.13;;;;;;;;;;5030950;28;20721;-60
2023/05/18 10:35:50;;;;;;;2.47;0.77;;;;;;;;;;5031466;28;20657;-60
2023/05/18 10:38:21;;;;;;;1.77;0.30;;;;;;;;;;5031935;28;20192;-61
2023/05/18 10:40:49;;;;;;;1.00;0.53;;;;;;;;;;5032040;28;20642;-61
2023/05/18 10:43:17;;;;;;;1.17;0.30;;;;;;;;;;5032349;28;20249;-61
2023/05/18 10:45:47;;;;;;;1.47;0.40;;;;;;;;;;5031790;28;20195;-61
2023/05/18 10:48:14;;;;;;;0.50;0.37;;;;;;;;;;5030758;28;20214;-61
2023/05/18 10:50:41;;;;;;;1.93;0.50;;;;;;;;;;5031351;28;20195;-61
2023/05/18 10:53:08;;;;;;;0.83;0.40;;;;;;;;;;5031598;28;20195;-61
2023/05/18 10:55:35;;;;;;;2.07;0.50;;;;;;;;;;5031872;28;20325;-61
2023/05/18 10:58:06;;;;;;;0.80;0.40;;;;;;;;;;5031760;28;20337;-61
2023/05/18 11:00:33;;;;;;;0.93;0.50;;;;;;;;;;5030288;28;20278;-61
2023/05/18 11:03:00;;;;;;;0.60;0.30;;;;;;;;;;5030254;28;20184;-62
2023/05/18 11:05:27;;;;;;;2.53;1.30;;;;;;;;;;5030429;28;20282;-61
2023/05/18 11:08:02;;;;;;;1.90;0.67;;;;;;;;;;5031417;28;20188;-61
2023/05/18 11:10:32;;;;;;;2.07;0.43;;;;;;;;;;5031980;28;20186;-61
2023/05/18 11:13:02;;;;;;;1.63;0.40;;;;;;;;;;5031391;28;20223;-61
2023/05/18 11:15:47;;;;;;;0.53;0.30;;;;;;;;;;5031205;28;20179;-60
2023/05/18 11:18:14;;;;;;;0.50;0.23;;;;;;;;;;5031184;28;20258;-61
2023/05/18 11:20:40;;;;;;;0.77;0.30;;;;;;;;;;5031131;28;20278;-61
2023/05/18 11:23:07;;;;;;;1.77;0.50;;;;;;;;;;5029827;28;20191;-61
2023/05/18 11:25:37;;;;;;;0.60;0.30;;;;;;;;;;5031225;28;20195;-60
2023/05/18 11:28:04;;;;;;;0.83;0.30;;;;;;;;;;5031024;28;20195;-61
2023/05/18 11:30:35;;;;;;;1.03;0.33;;;;;;;;;;5030999;28;20219;-60
2023/05/18 11:33:08;;;;;;;1.10;0.40;;;;;;;;;;5030931;28;20215;-60
2023/05/18 11:35:53;;;;;;;0.90;0.33;;;;;;;;;;5030973;28;20242;-61
2023/05/18 11:38:20;;;;;;;1.73;0.50;;;;;;;;;;5030619;28;20201;-61
2023/05/18 11:40:48;;;;;;;0.90;0.40;;;;;;;;;;5030851;28;20547;-61
2023/05/18 11:43:23;;;;;;;2.20;0.30;;;;;;;;;;5030919;28;20202;-61
2023/05/18 11:45:51;;;;;;;0.93;0.30;;;;;;;;;;5029424;28;20721;-61
2023/05/18 11:48:19;;;;;;;2.50;0.80;;;;;;;;;;5030830;28;20190;-61
2023/05/18 11:50:46;;;;;;;2.23;0.43;;;;;;;;;;5029697;28;20191;-61
2023/05/18 11:53:16;;;;;;;2.03;1.07;;;;;;;;;;5030328;28;20231;-61
2023/05/18 11:55:44;;;;;;;1.90;0.40;;;;;;;;;;5030670;28;20254;-61
2023/05/18 11:58:17;;;;;;;2.10;0.60;;;;;;;;;;5031088;28;20195;-61
2023/05/18 12:00:45;;;;;;;1.77;0.70;;;;;;;;;;5030267;28;20218;-61
2023/05/18 12:03:11;;;;;;;2.83;0.80;;;;;;;;;;5029244;28;20187;-61
2023/05/18 12:05:40;;;;;;;0.30;0.20;;;;;;;;;;5030392;28;20206;-61
2023/05/18 12:08:07;;;;;;;3.80;1.17;;;;;;;;;;5030085;28;20209;-61
2023/05/18 12:10:38;;;;;;;1.13;0.40;;;;;;;;;;5029527;28;20198;-61
2023/05/18 12:13:05;;;;;;;1.90;0.50;;;;;;;;;;5030176;28;20214;-61
2023/05/18 12:15:32;;;;;;;0.50;0.30;;;;;;;;;;5030228;28;20190;-61
2023/05/18 12:17:59;;;;;;;3.47;0.50;;;;;;;;;;5028798;28;20223;-61
2023/05/18 12:20:29;;;;;;;1.60;0.50;;;;;;;;;;5030187;28;20952;-61
2023/05/18 12:22:57;;;;;;;2.13;0.73;;;;;;;;;;5030086;28;20253;-61
2023/05/18 12:25:24;;;;;;;1.90;0.60;;;;;;;;;;5028938;28;20705;-61
2023/05/18 12:27:51;;;;;;;0.97;0.40;;;;;;;;;;5029840;28;20271;-61
2023/05/18 12:30:19;;;;;;;4.50;0.90;;;;;;;;;;5029832;28;20278;-61
2023/05/18 12:32:52;;;;;;;1.67;0.40;;;;;;;;;;5029666;28;20686;-61
2023/05/18 12:35:22;;;;;;;1.53;0.53;;;;;;;;;;5029797;28;20186;-61
2023/05/18 12:37:49;;;;;;;0.60;0.30;;;;;;;;;;5029839;28;20201;-61
2023/05/18 12:40:16;;;;;;;2.37;1.00;;;;;;;;;;5030159;28;20274;-62
2023/05/18 12:42:50;;;;;;;1.37;0.60;;;;;;;;;;5029778;28;20187;-61
2023/05/18 12:45:17;;;;;;;1.17;0.40;;;;;;;;;;5029703;28;20272;-61
2023/05/18 12:47:44;;;;;;;2.70;1.00;;;;;;;;;;5029616;28;20274;-61
2023/05/18 12:50:11;;;;;;;3.83;0.80;;;;;;;;;;5029516;28;20214;-61
2023/05/18 12:52:38;;;;;;;2.13;0.33;;;;;;;;;;5028624;28;20663;-62
2023/05/18 12:55:06;;;;;;;3.87;1.40;;;;;;;;;;5029418;28;20278;-61
2023/05/18 12:57:35;;;;;;;1.47;0.30;;;;;;;;;;5029117;28;20702;-61
2023/05/18 13:00:09;;;;;;;3.30;0.80;;;;;;;;;;5028284;28;20231;-61
2023/05/18 13:02:36;;;;;;;4.87;0.43;;;;;;;;;;5028093;28;20199;-61
2023/05/18 13:05:07;;;;;;;2.90;0.50;;;;;;;;;;5028260;28;20183;-62
2023/05/18 13:07:41;;;;;;;1.60;0.40;;;;;;;;;;5029663;28;20226;-61
2023/05/18 13:10:11;;;;;;;1.30;0.40;;;;;;;;;;5029568;28;20666;-61
2023/05/18 13:12:47;;;;;;;1.23;0.40;;;;;;;;;;5029273;28;20227;-61
2023/05/18 13:15:21;;;;;;;1.30;0.37;;;;;;;;;;5029239;28;20286;-60
2023/05/18 13:17:53;;;;;;;5.60;1.10;;;;;;;;;;5025195;28;20238;-61
2023/05/18 13:20:20;;;;;;;1.70;0.70;;;;;;;;;;5029644;28;20203;-60
2023/05/18 13:22:48;;;;;;;1.50;0.70;;;;;;;;;;5026781;28;20310;-60
2023/05/18 13:25:15;;;;;;;1.97;0.40;;;;;;;;;;5013631;28;20192;-60
2023/05/18 13:27:44;;;;;;;2.00;0.50;;;;;;;;;;5024632;28;20230;-60
2023/05/18 13:30:11;;;;;;;1.47;0.70;;;;;;;;;;5019871;28;20729;-61
2023/05/18 13:32:38;;;;;;;1.97;0.40;;;;;;;;;;5030429;28;20266;-61
2023/05/18 13:35:05;;;;;;;2.03;0.40;;;;;;;;;;5026357;28;20681;-62
2023/05/18 13:37:31;;;;;;;0.90;0.40;;;;;;;;;;5011156;28;20534;-61
2023/05/18 13:39:58;;;;;;;1.33;0.40;;;;;;;;;;5021512;28;20203;-61
2023/05/18 13:42:25;;;;;;;0.90;0.40;;;;;;;;;;5020070;28;20199;-61
2023/05/18 13:44:52;;;;;;;1.67;0.50;;;;;;;;;;5028348;28;20734;-61
2023/05/18 13:47:19;;;;;;;1.80;0.43;;;;;;;;;;5031349;28;20191;-61
2023/05/18 13:49:52;;;;;;;1.57;0.30;;;;;;;;;;5029233;28;20663;-62
2023/05/18 13:52:19;;;;;;;2.87;0.60;;;;;;;;;;5027464;28;20222;-61
2023/05/18 13:54:46;;;;;;;1.67;0.40;;;;;;;;;;5019536;28;20635;-63
2023/05/18 13:57:13;;;;;;;0.77;0.30;;;;;;;;;;5031090;28;20195;-61
2023/05/18 13:59:40;;;;;;;0.23;0.23;;;;;;;;;;5030808;28;20207;-61
2023/05/18 14:02:06;;;;;;;1.40;0.30;;;;;;;;;;5026275;28;20266;-61
2023/05/18 14:04:35;;;;;;;1.70;0.30;;;;;;;;;;5030945;28;20199;-61
2023/05/18 14:07:02;;;;;;;3.07;0.50;;;;;;;;;;5026333;28;20188;-62
2023/05/18 14:09:29;;;;;;;1.00;0.37;;;;;;;;;;5000566;28;21155;-62
2023/05/18 14:11:58;;;;;;;2.33;0.50;;;;;;;;;;5030080;28;20671;-61
2023/05/18 14:14:25;;;;;;;1.20;0.40;;;;;;;;;;5019235;28;20196;-61
2023/05/18 14:16:53;;;;;;;0.60;0.33;;;;;;;;;;5018921;28;20220;-62
2023/05/18 14:19:21;;;;;;;4.90;0.40;;;;;;;;;;5022532;28;20198;-60
2023/05/18 14:21:48;;;;;;;1.20;0.60;;;;;;;;;;5018825;28;20196;-59
2023/05/18 14:24:15;;;;;;;4.57;0.80;;;;;;;;;;5018865;28;20602;-61
2023/05/18 14:26:42;;;;;;;1.80;0.40;;;;;;;;;;5018281;28;20237;-60
2023/05/18 14:29:09;;;;;;;2.73;0.37;;;;;;;;;;5016056;28;20192;-60
2023/05/18 14:31:36;;;;;;;0.70;0.40;;;;;;;;;;5016770;28;20196;-60
2023/05/18 14:34:03;;;;;;;0.87;0.37;;;;;;;;;;5003023;28;20559;-61
2023/05/18 14:36:30;;;;;;;0.50;0.20;;;;;;;;;;5015048;28;20659;-62
2023/05/18 14:38:57;;;;;;;2.13;0.40;;;;;;;;;;5020880;28;20729;-60
2023/05/18 14:41:24;;;;;;;0.93;0.27;;;;;;;;;;5015215;28;20303;-61
2023/05/18 14:43:52;;;;;;;2.10;0.33;;;;;;;;;;5015099;28;20659;-61
2023/05/18 14:46:19;;;;;;;0.47;0.40;;;;;;;;;;5023665;28;20283;-60
2023/05/18 14:48:49;;;;;;;1.90;0.40;;;;;;;;;;5018653;28;20827;-60
2023/05/18 14:51:17;;;;;;;2.43;0.40;;;;;;;;;;5025050;28;20288;-61
2023/05/18 14:53:44;;;;;;;1.93;0.60;;;;;;;;;;5028895;28;20690;-61
2023/05/18 14:56:12;;;;;;;1.33;0.30;;;;;;;;;;5017728;28;20228;-61
2023/05/18 14:58:40;;;;;;;1.27;0.30;;;;;;;;;;5033329;28;20659;-60
2023/05/18 15:01:07;;;;;;;1.57;0.40;;;;;;;;;;5030457;28;20456;-60
2023/05/18 15:03:34;;;;;;;0.60;0.30;;;;;;;;;;5029419;28;20192;-60
2023/05/18 15:06:01;;;;;;;2.60;0.60;;;;;;;;;;5031133;28;20196;-60
2023/05/18 15:08:28;;;;;;;1.20;0.50;;;;;;;;;;5021346;28;20756;-60
2023/05/18 15:10:55;;;;;;;1.00;0.50;;;;;;;;;;5032958;28;20187;-61
2023/05/18 15:13:22;;;;;;;0.80;0.37;;;;;;;;;;5016871;28;20481;-60
2023/05/18 15:15:48;;;;;;;1.43;0.50;;;;;;;;;;5017685;28;20540;-61
2023/05/18 15:18:16;;;;;;;0.70;0.30;;;;;;;;;;5014178;28;20249;-61
2023/05/18 15:20:43;;;;;;;1.63;0.60;;;;;;;;;;5022986;28;20199;-60
2023/05/18 15:23:10;;;;;;;3.53;0.60;;;;;;;;;;5016308;28;20188;-60